createdAt,value
2022-10-31T02:56:59.462Z,12.38
2022-10-31T02:59:28.199Z,12.77
2022-10-31T03:02:07.820Z,12.63
2022-10-31T03:04:46.041Z,14.23
2022-10-31T03:07:23.117Z,13.38
2022-10-31T03:09:56.047Z,12.30
2022-10-31T03:12:30.045Z,14.25
2022-10-31T03:15:01.741Z,13.70
2022-10-31T03:17:33.748Z,15.50
2022-10-31T03:20:03.682Z,12.85
2022-10-31T03:22:32.824Z,14.23
2022-10-31T03:25:02.244Z,13.63
2022-10-31T03:27:33.407Z,15.32
2022-10-31T03:33:30.514Z,13.73
2022-10-31T03:36:00.624Z,15.73
2022-10-31T03:38:29.426Z,15.18
2022-10-31T03:40:59.231Z,15.82
2022-10-31T03:43:30.865Z,17.17
2022-10-31T03:45:59.332Z,15.00
2022-10-31T03:48:28.027Z,16.98
2022-10-31T03:51:00.242Z,16.73
2022-10-31T03:53:30.198Z,15.13
2022-10-31T03:56:01.713Z,19.58
2022-10-31T03:58:33.574Z,18.50
2022-10-31T04:01:03.233Z,21.13
2022-10-31T04:03:33.524Z,20.50
2022-10-31T04:06:04.344Z,21.80
2022-10-31T04:08:34.038Z,20.55
2022-10-31T04:11:02.780Z,22.10
2022-10-31T04:13:33.662Z,21.33
2022-10-31T04:16:01.997Z,20.70
2022-10-31T04:18:30.102Z,19.98
2022-10-31T04:21:02.651Z,21.33
2022-10-31T04:23:30.969Z,21.77
2022-10-31T04:25:59.460Z,21.90
2022-10-31T04:28:27.555Z,23.80
2022-10-31T04:30:57.397Z,23.60
2022-10-31T04:33:25.454Z,20.98
2022-10-31T04:35:53.871Z,20.92
2022-10-31T04:38:22.091Z,22.25
2022-10-31T04:40:50.315Z,20.73
2022-10-31T04:45:46.907Z,20.23
2022-10-31T04:48:16.435Z,22.38
2022-10-31T04:50:45.139Z,23.00
2022-10-31T04:53:13.252Z,20.38
2022-10-31T04:55:41.674Z,22.15
2022-10-31T04:58:09.755Z,23.02
2022-10-31T05:00:38.661Z,21.93
2022-10-31T05:03:06.886Z,21.60
2022-10-31T05:05:36.690Z,22.17
2022-10-31T05:08:04.875Z,21.45
2022-10-31T05:10:33.521Z,23.88
2022-10-31T05:13:02.750Z,21.33
2022-10-31T05:15:31.303Z,21.42
2022-10-31T05:17:59.664Z,21.35
2022-10-31T05:20:28.554Z,22.17
2022-10-31T05:22:58.924Z,20.95
2022-10-31T05:25:28.371Z,22.60
2022-10-31T05:27:57.395Z,21.30
2022-10-31T05:30:26.429Z,23.00
2022-10-31T05:32:54.778Z,23.35
2022-10-31T05:35:23.442Z,21.23
2022-10-31T05:37:52.020Z,23.25
2022-10-31T05:40:22.001Z,22.73
2022-10-31T05:42:52.878Z,22.60
2022-10-31T05:45:21.207Z,23.08
2022-10-31T05:47:53.298Z,22.23
2022-10-31T05:50:21.441Z,18.17
2022-10-31T05:52:50.041Z,25.73
2022-10-31T05:55:18.158Z,25.27
2022-10-31T05:57:47.756Z,26.60
2022-10-31T06:02:43.727Z,23.27
2022-10-31T06:05:11.889Z,23.38
2022-10-31T06:07:40.273Z,24.73
2022-10-31T06:10:09.951Z,23.52
2022-10-31T06:12:38.781Z,23.35
2022-10-31T06:15:09.787Z,24.48
2022-10-31T06:17:38.374Z,24.02
2022-10-31T06:20:06.944Z,24.17
2022-10-31T06:22:35.305Z,23.20
2022-10-31T06:25:03.345Z,23.77
2022-10-31T06:27:31.775Z,43.67
2022-10-31T06:30:00.000Z,48.72
2022-10-31T06:32:29.763Z,38.93
2022-10-31T06:37:25.798Z,25.42
2022-10-31T06:39:53.826Z,23.55
2022-10-31T06:42:22.154Z,26.05
2022-10-31T06:44:50.155Z,25.35
2022-10-31T06:47:18.731Z,24.57
2022-10-31T06:49:48.252Z,24.08
2022-10-31T06:52:16.742Z,24.00
2022-10-31T06:54:44.755Z,21.63
2022-10-31T06:57:13.142Z,25.77
2022-10-31T06:59:41.264Z,25.05
2022-10-31T07:02:11.038Z,23.02
2022-10-31T07:04:39.220Z,24.08
2022-10-31T07:07:08.974Z,23.70
2022-10-31T07:12:05.303Z,23.63
2022-10-31T07:14:33.340Z,24.23
2022-10-31T07:17:01.860Z,23.77
2022-10-31T07:19:29.865Z,23.30
2022-10-31T07:21:58.981Z,25.88
2022-10-31T07:24:28.731Z,24.13
2022-10-31T07:26:57.025Z,24.60
2022-10-31T07:29:25.118Z,24.55
2022-10-31T07:31:53.814Z,28.42
2022-10-31T07:34:21.888Z,23.60
2022-10-31T07:36:50.179Z,23.83
2022-10-31T07:39:18.516Z,23.67
2022-10-31T07:41:50.535Z,27.38
2022-10-31T07:44:18.689Z,25.10
2022-10-31T07:46:47.171Z,25.45
2022-10-31T07:49:15.237Z,22.95
2022-10-31T07:51:46.448Z,21.55
2022-10-31T07:54:15.087Z,21.52
2022-10-31T07:56:43.493Z,22.73
2022-10-31T07:59:13.027Z,23.23
2022-10-31T08:01:41.426Z,30.33
2022-10-31T08:04:09.802Z,27.05
2022-10-31T08:06:38.090Z,25.83
2022-10-31T08:09:06.206Z,24.92
2022-10-31T08:11:34.763Z,26.33
2022-10-31T08:14:02.843Z,24.88
2022-10-31T08:16:32.764Z,26.05
2022-10-31T08:19:01.413Z,25.13
2022-10-31T08:21:29.864Z,25.05
2022-10-31T08:23:57.991Z,26.80
2022-10-31T08:26:26.222Z,27.27
2022-10-31T08:28:55.672Z,27.80
2022-10-31T08:31:27.006Z,26.48
2022-10-31T08:34:00.135Z,26.15
2022-10-31T08:36:29.106Z,26.92
2022-10-31T08:39:01.623Z,27.65
2022-10-31T08:41:30.949Z,26.80
2022-10-31T08:43:59.091Z,26.35
2022-10-31T08:46:27.723Z,27.40
2022-10-31T08:48:56.174Z,26.98
2022-10-31T08:51:26.122Z,26.98
2022-10-31T08:53:54.169Z,26.30
2022-10-31T08:56:23.553Z,26.85
2022-10-31T08:58:52.133Z,25.80
2022-10-31T09:01:20.690Z,26.00
2022-10-31T09:03:48.784Z,25.02
2022-10-31T09:06:17.303Z,23.85
2022-10-31T09:08:47.106Z,24.05
2022-10-31T09:11:15.379Z,23.70
2022-10-31T09:13:43.387Z,24.52
2022-10-31T09:16:11.808Z,24.90
2022-10-31T09:18:39.810Z,25.60
2022-10-31T09:21:08.130Z,24.25
2022-10-31T09:23:36.124Z,23.80
2022-10-31T09:26:06.045Z,24.10
2022-10-31T09:28:34.162Z,22.42
2022-10-31T09:31:02.453Z,24.13
2022-10-31T09:33:30.598Z,22.95
2022-10-31T09:36:00.479Z,24.33
2022-10-31T09:38:28.513Z,24.85
2022-10-31T09:40:57.917Z,25.87
2022-10-31T09:43:35.230Z,22.92
2022-10-31T09:46:05.542Z,25.05
2022-10-31T09:48:41.443Z,25.38
2022-10-31T09:51:12.336Z,25.00
2022-10-31T09:53:42.076Z,25.58
2022-10-31T09:56:12.176Z,25.60
2022-10-31T09:58:44.050Z,58.45
2022-10-31T10:01:22.310Z,26.15
2022-10-31T10:03:52.553Z,25.48
2022-10-31T10:06:25.266Z,24.13
2022-10-31T10:08:53.437Z,24.75
2022-10-31T10:11:30.344Z,24.95
2022-10-31T10:14:07.064Z,23.52
2022-10-31T10:16:45.805Z,24.90
2022-10-31T10:19:20.232Z,22.33
2022-10-31T10:21:52.382Z,20.45
2022-10-31T10:24:25.574Z,24.73
2022-10-31T10:27:00.177Z,24.52
2022-10-31T10:29:35.059Z,24.77
2022-10-31T10:32:11.064Z,21.90
2022-10-31T10:34:42.226Z,22.75
2022-10-31T10:37:16.397Z,21.33
2022-10-31T10:39:46.660Z,23.33
2022-10-31T10:42:33.515Z,21.75
2022-10-31T10:45:26.140Z,22.52
2022-10-31T10:47:57.531Z,22.77
2022-10-31T10:50:29.737Z,22.08
2022-10-31T10:53:04.395Z,22.00
2022-10-31T10:55:37.782Z,21.73
2022-10-31T10:58:07.449Z,22.08
2022-10-31T11:03:07.272Z,20.13
2022-10-31T11:05:37.824Z,20.35
2022-10-31T11:08:07.063Z,18.23
2022-10-31T11:10:35.570Z,19.52
2022-10-31T11:13:06.972Z,20.08
2022-10-31T11:15:38.001Z,20.05
2022-10-31T11:18:22.720Z,19.60
2022-10-31T11:20:53.593Z,16.27
2022-10-31T11:23:22.827Z,18.00
2022-10-31T11:25:53.196Z,16.95
2022-10-31T11:28:21.505Z,16.52
2022-10-31T11:30:51.049Z,15.70
2022-10-31T11:33:22.397Z,16.40
2022-10-31T11:35:53.521Z,16.52
2022-10-31T11:38:26.865Z,15.48
2022-10-31T11:40:56.378Z,17.70
2022-10-31T11:43:25.965Z,17.08
2022-10-31T11:48:24.836Z,16.48
2022-10-31T11:50:54.253Z,17.80
2022-10-31T11:53:24.256Z,18.30
2022-10-31T11:56:03.302Z,18.65
2022-10-31T12:00:59.658Z,15.43
2022-10-31T12:03:39.593Z,15.25
2022-10-31T12:06:10.037Z,12.73
2022-10-31T12:08:56.822Z,13.52
2022-10-31T12:11:44.943Z,14.30
2022-10-31T12:14:28.562Z,13.50
2022-10-31T12:16:59.984Z,13.05
2022-10-31T12:19:33.801Z,12.98
2022-10-31T12:22:08.861Z,15.68
2022-10-31T12:24:46.206Z,16.33
2022-10-31T12:27:19.711Z,13.50
2022-10-31T12:29:56.226Z,15.43
2022-10-31T12:32:31.746Z,16.88
2022-10-31T12:35:23.869Z,16.67
2022-10-31T12:38:01.319Z,17.65
2022-10-31T12:40:35.883Z,16.15
2022-10-31T12:43:15.829Z,14.68
2022-10-31T12:45:51.616Z,13.73
2022-10-31T12:48:26.494Z,15.05
2022-10-31T12:50:58.319Z,14.90
2022-10-31T12:53:38.148Z,13.25
2022-10-31T12:56:17.384Z,15.48
2022-10-31T12:58:47.895Z,15.05
2022-10-31T13:01:18.280Z,16.42
2022-10-31T13:03:48.886Z,16.02
2022-10-31T13:06:20.287Z,16.75
2022-10-31T13:08:52.018Z,17.85
2022-10-31T13:11:23.680Z,16.95
2022-10-31T13:13:54.867Z,16.73
2022-10-31T13:16:24.997Z,16.45
2022-10-31T13:18:55.095Z,16.23
2022-10-31T13:21:25.108Z,15.35
2022-10-31T13:23:54.719Z,16.55
2022-10-31T13:26:26.289Z,14.05
2022-10-31T13:28:58.482Z,16.15
2022-10-31T13:31:27.464Z,14.55
2022-10-31T13:33:57.196Z,15.80
2022-10-31T13:36:29.631Z,15.27
2022-10-31T13:39:01.946Z,16.10
2022-10-31T13:41:36.255Z,16.73
2022-10-31T13:44:07.729Z,16.20
2022-10-31T13:46:40.231Z,16.27
2022-10-31T13:49:25.896Z,16.58
2022-10-31T13:51:54.693Z,17.20
2022-10-31T13:54:25.360Z,17.93
2022-10-31T13:56:54.893Z,17.48
2022-10-31T13:59:24.582Z,18.27
2022-10-31T14:01:56.282Z,18.02
2022-10-31T14:04:26.342Z,19.95
2022-10-31T14:07:01.138Z,19.58
2022-10-31T14:09:39.189Z,20.42
2022-10-31T14:12:09.648Z,18.58
2022-10-31T14:14:44.366Z,19.67
2022-10-31T14:17:19.658Z,19.60
2022-10-31T14:19:58.511Z,20.23
2022-10-31T14:22:31.047Z,19.15
2022-10-31T14:25:00.547Z,18.85
2022-10-31T14:27:36.829Z,19.58
2022-10-31T14:30:18.317Z,19.08
2022-10-31T14:32:47.035Z,19.25
2022-10-31T14:35:21.264Z,18.55
2022-10-31T14:38:05.052Z,18.83
2022-10-31T14:40:42.668Z,17.95
2022-10-31T14:43:18.698Z,18.02
2022-10-31T14:45:52.201Z,18.35
2022-10-31T14:48:29.593Z,18.98
2022-10-31T14:50:59.380Z,18.27
2022-10-31T14:53:28.753Z,17.08
2022-10-31T14:56:02.836Z,17.42
2022-10-31T15:01:05.303Z,17.08
2022-10-31T15:03:35.839Z,17.08
2022-10-31T15:06:05.655Z,16.38
2022-10-31T15:08:35.704Z,16.67
2022-10-31T15:11:21.791Z,16.88
2022-10-31T15:13:52.609Z,18.08
2022-10-31T15:16:22.646Z,17.52
2022-10-31T15:18:52.754Z,18.23
2022-10-31T15:21:22.653Z,18.45
2022-10-31T15:23:52.495Z,17.95
2022-10-31T15:26:21.315Z,17.75
2022-10-31T15:29:04.577Z,17.80
2022-10-31T15:31:33.824Z,18.38
2022-10-31T15:34:04.591Z,20.63
2022-10-31T15:36:37.431Z,18.17
2022-10-31T15:39:06.966Z,16.65
2022-10-31T15:41:36.584Z,18.50
2022-10-31T15:44:14.424Z,17.65
2022-10-31T15:46:42.574Z,18.38
2022-10-31T15:49:20.583Z,18.58
2022-10-31T15:51:54.628Z,17.33
2022-10-31T15:54:23.725Z,16.83
2022-10-31T15:56:53.385Z,17.55
2022-10-31T15:59:26.624Z,17.83
2022-10-31T16:02:02.613Z,18.35
2022-10-31T16:04:31.800Z,16.48
2022-10-31T16:07:03.959Z,16.98
2022-10-31T16:09:32.239Z,17.65
2022-10-31T16:12:01.193Z,17.75
2022-10-31T16:14:42.286Z,18.27
2022-10-31T16:17:13.654Z,18.15
2022-10-31T16:19:50.097Z,16.85
2022-10-31T16:22:22.255Z,18.13
2022-10-31T16:24:52.202Z,17.52
2022-10-31T16:27:20.975Z,16.17
2022-10-31T16:29:50.718Z,17.85
2022-10-31T16:34:46.827Z,16.55
2022-10-31T16:37:14.983Z,19.55
2022-10-31T16:39:43.526Z,18.25
2022-10-31T16:42:12.684Z,17.70
2022-10-31T16:47:15.605Z,19.73
2022-10-31T16:49:44.863Z,19.48
2022-10-31T16:52:13.122Z,24.05
2022-10-31T16:54:41.913Z,22.38
2022-10-31T16:57:14.688Z,22.50
2022-10-31T16:59:51.101Z,24.25
2022-10-31T17:02:22.155Z,21.27
2022-10-31T17:04:53.797Z,21.17
2022-10-31T17:07:25.018Z,20.33
2022-10-31T17:09:53.279Z,19.67
2022-10-31T17:12:28.825Z,21.20
2022-10-31T17:14:57.718Z,19.25
2022-10-31T17:17:27.662Z,18.40
2022-10-31T17:19:56.043Z,18.40
2022-10-31T17:22:24.193Z,17.73
2022-10-31T17:24:52.658Z,17.88
2022-10-31T17:27:20.897Z,17.95
2022-10-31T17:29:49.100Z,17.07
2022-10-31T17:32:17.428Z,17.02
2022-10-31T17:34:47.116Z,18.10
2022-10-31T17:39:43.118Z,17.48
2022-10-31T17:42:11.121Z,18.02
2022-10-31T17:44:39.815Z,19.15
2022-10-31T17:47:07.870Z,19.33
2022-10-31T17:49:36.555Z,18.52
2022-10-31T17:52:07.162Z,18.50
2022-10-31T17:54:35.870Z,20.10
2022-10-31T17:57:04.285Z,19.15
2022-10-31T17:59:32.651Z,21.77
2022-10-31T18:02:00.861Z,23.58
2022-10-31T18:04:29.454Z,24.27
2022-10-31T18:06:57.669Z,22.58
2022-10-31T18:09:27.479Z,23.27
2022-10-31T18:11:55.798Z,21.25
2022-10-31T18:14:24.419Z,20.50
2022-10-31T18:16:52.567Z,19.98
2022-10-31T18:19:21.174Z,20.27
2022-10-31T18:21:49.347Z,19.13
2022-10-31T18:24:20.161Z,19.80
2022-10-31T18:26:50.600Z,19.38
2022-10-31T18:29:19.050Z,22.90
2022-10-31T18:31:48.655Z,23.02
2022-10-31T18:34:17.468Z,20.73
2022-10-31T18:36:53.330Z,20.70
2022-10-31T18:39:21.930Z,18.38
2022-10-31T18:41:51.634Z,19.52
2022-10-31T18:44:20.196Z,20.60
2022-10-31T18:46:51.870Z,19.30
2022-10-31T18:49:22.783Z,20.60
2022-10-31T18:51:51.242Z,19.77
2022-10-31T18:54:27.445Z,17.00
2022-10-31T18:56:59.155Z,20.30
2022-10-31T18:59:27.721Z,19.65
2022-10-31T19:01:56.160Z,19.83
2022-10-31T19:04:24.906Z,19.40
2022-10-31T19:06:53.285Z,20.00
2022-10-31T19:09:21.933Z,19.45
2022-10-31T19:11:50.129Z,20.90
2022-10-31T20:30:29.233Z,21.50
2022-10-31T20:33:00.562Z,25.00
2022-10-31T20:35:42.955Z,21.52
2022-10-31T20:38:31.239Z,18.50
2022-10-31T20:41:01.179Z,19.63
2022-10-31T20:43:29.854Z,19.58
2022-10-31T20:46:01.140Z,17.58
2022-10-31T20:48:31.428Z,16.42
2022-10-31T20:51:00.021Z,16.55
2022-10-31T20:53:29.071Z,18.45
2022-10-31T20:56:08.555Z,28.63
2022-10-31T20:58:39.701Z,23.08
2022-10-31T21:01:12.233Z,23.17
2022-10-31T21:03:42.289Z,22.52
2022-10-31T21:06:11.304Z,23.23
2022-10-31T21:08:40.366Z,22.42
2022-10-31T21:11:16.686Z,26.08
2022-10-31T21:13:47.124Z,24.75
2022-10-31T21:16:16.440Z,24.98
2022-10-31T21:18:47.526Z,22.60
2022-10-31T21:21:16.548Z,23.25
2022-10-31T21:23:45.317Z,22.75
2022-10-31T21:26:14.585Z,27.63
2022-10-31T21:28:43.302Z,24.20
2022-10-31T21:31:12.789Z,24.90
2022-10-31T21:33:41.487Z,27.63
2022-10-31T21:36:11.777Z,26.90
2022-10-31T21:38:40.364Z,27.45
2022-10-31T21:41:09.521Z,27.90
